Time;durP1;ratioP1;P1;durP2;ratioP2;P2;SDS_P1;SDS_P2;PMS_P1;PMS_P2;Temp;Humidity;BMP_temperature;BMP_pressure;BME280_temperature;BME280_humidity;BME280_pressure;Samples;Min_cycle;Max_cycle;Signal;HPM_P1;HPM_P2
2023/09/20 00:01:49;;;;;;;10.50;2.45;;;37.30;47.80;;;;;;5064233;28;21423;-61
2023/09/20 00:04:15;;;;;;;9.85;2.30;;;37.20;47.70;;;;;;5064238;28;20031;-60
2023/09/20 00:06:42;;;;;;;10.15;2.35;;;37.10;47.70;;;;;;5058306;28;20045;-61
2023/09/20 00:09:08;;;;;;;9.15;1.90;;;37.10;48.00;;;;;;5067947;28;20024;-62
2023/09/20 00:11:35;;;;;;;12.80;2.50;;;37.10;47.80;;;;;;5068636;28;20029;-60
2023/09/20 00:14:02;;;;;;;11.20;2.08;;;37.00;49.10;;;;;;5064067;28;20369;-62
2023/09/20 00:16:29;;;;;;;6.50;2.13;;;37.00;48.70;;;;;;5065345;28;20017;-62
2023/09/20 00:18:55;;;;;;;7.97;2.35;;;37.00;48.50;;;;;;5058496;28;20032;-61
2023/09/20 00:21:23;;;;;;;7.65;2.38;;;37.00;49.30;;;;;;5066693;28;20028;-61
2023/09/20 00:23:50;;;;;;;13.23;2.30;;;36.90;48.30;;;;;;5064787;28;20013;-60
2023/09/20 00:26:19;;;;;;;12.57;3.08;;;36.90;49.00;;;;;;5061019;28;20021;-62
2023/09/20 00:28:49;;;;;;;6.97;2.42;;;36.80;49.90;;;;;;5067496;28;20427;-63
2023/09/20 00:31:16;;;;;;;9.90;2.80;;;36.70;49.20;;;;;;5067574;28;20036;-60
2023/09/20 00:33:43;;;;;;;7.65;2.38;;;36.50;49.40;;;;;;5071613;28;20020;-59
2023/09/20 00:36:16;;;;;;;10.90;2.30;;;36.40;49.60;;;;;;5063357;28;20017;-62
2023/09/20 00:38:45;;;;;;;11.95;2.50;;;36.30;50.00;;;;;;5065095;28;20021;-62
2023/09/20 00:41:11;;;;;;;16.30;2.97;;;36.40;49.90;;;;;;5069256;28;20023;-55
2023/09/20 00:43:38;;;;;;;11.50;2.70;;;36.30;49.60;;;;;;5069048;28;20537;-61
2023/09/20 00:46:07;;;;;;;17.60;2.90;;;36.30;49.70;;;;;;5077578;28;20032;-60
2023/09/20 00:48:34;;;;;;;10.32;2.90;;;36.20;49.50;;;;;;5072672;28;20539;-58
2023/09/20 00:51:01;;;;;;;11.50;3.33;;;36.20;49.70;;;;;;5071270;28;20036;-63
2023/09/20 00:53:28;;;;;;;11.07;2.90;;;36.10;49.70;;;;;;5073355;28;20013;-62
2023/09/20 00:55:55;;;;;;;8.90;2.58;;;36.10;49.10;;;;;;5071984;28;20530;-59
2023/09/20 00:58:23;;;;;;;15.60;2.88;;;36.10;48.70;;;;;;5068401;28;20021;-65
2023/09/20 01:00:54;;;;;;;15.80;2.55;;;35.90;49.00;;;;;;5067892;28;20019;-59
2023/09/20 01:03:21;;;;;;;14.63;3.00;;;35.90;49.30;;;;;;5069723;28;20100;-58
2023/09/20 01:05:48;;;;;;;12.43;2.58;;;35.80;49.30;;;;;;5069717;28;20024;-58
2023/09/20 01:08:20;;;;;;;12.85;2.53;;;35.80;49.50;;;;;;5071710;28;20020;-58
2023/09/20 01:10:48;;;;;;;8.77;2.90;;;35.60;49.00;;;;;;5069985;28;20005;-62
2023/09/20 01:13:18;;;;;;;16.23;2.67;;;35.60;48.60;;;;;;5077227;28;20143;-57
2023/09/20 01:15:46;;;;;;;11.80;2.95;;;35.50;48.30;;;;;;5067098;28;20048;-57
2023/09/20 01:18:12;;;;;;;15.18;3.28;;;35.50;48.40;;;;;;5077594;28;20735;-60
2023/09/20 01:20:40;;;;;;;12.00;3.72;;;35.40;47.90;;;;;;5067326;28;20174;-59
2023/09/20 01:23:07;;;;;;;15.07;3.47;;;35.40;48.00;;;;;;5049513;28;20591;-61
2023/09/20 01:25:35;;;;;;;10.48;3.53;;;35.30;47.60;;;;;;5070193;28;20503;-61
2023/09/20 01:28:04;;;;;;;10.93;3.15;;;35.30;48.20;;;;;;5075411;28;20012;-57
2023/09/20 01:30:36;;;;;;;10.05;2.97;;;35.20;47.20;;;;;;5073738;28;20032;-59
2023/09/20 01:33:06;;;;;;;12.18;3.15;;;35.20;47.30;;;;;;5071466;28;20077;-61
2023/09/20 01:35:34;;;;;;;20.35;3.50;;;35.10;47.20;;;;;;5066712;28;20021;-63
2023/09/20 01:38:06;;;;;;;15.48;3.47;;;35.00;47.30;;;;;;5076390;28;20684;-62
2023/09/20 01:40:33;;;;;;;23.15;3.30;;;34.90;47.20;;;;;;5077404;28;20528;-61
2023/09/20 01:43:05;;;;;;;24.63;3.50;;;34.90;47.40;;;;;;5076035;28;20021;-60
2023/09/20 01:45:34;;;;;;;19.10;3.45;;;34.90;47.50;;;;;;5071638;28;20484;-60
2023/09/20 01:48:01;;;;;;;20.80;4.35;;;34.80;47.50;;;;;;5073152;28;20043;-58
2023/09/20 01:50:28;;;;;;;30.50;4.25;;;34.80;47.40;;;;;;5075698;28;20052;-61
2023/09/20 01:52:56;;;;;;;21.27;4.60;;;34.70;47.60;;;;;;5078511;28;20481;-59
2023/09/20 01:55:24;;;;;;;25.90;5.15;;;34.70;47.50;;;;;;5069473;28;20021;-62
2023/09/20 01:57:55;;;;;;;21.73;5.70;;;34.60;47.20;;;;;;5068627;28;20440;-61
2023/09/20 02:00:32;;;;;;;35.55;6.07;;;34.50;47.10;;;;;;5070567;28;20373;-61
2023/09/20 02:03:00;;;;;;;15.57;4.55;;;34.40;47.00;;;;;;5068693;28;20017;-60
2023/09/20 02:05:28;;;;;;;31.05;6.00;;;34.30;47.00;;;;;;5071136;28;20420;-60
2023/09/20 02:07:58;;;;;;;30.88;5.70;;;34.30;47.10;;;;;;5074974;28;20430;-64
2023/09/20 02:10:25;;;;;;;24.73;5.43;;;34.30;47.10;;;;;;5072918;28;20028;-61
2023/09/20 02:12:53;;;;;;;28.13;5.45;;;34.20;47.20;;;;;;5075479;28;20421;-59
2023/09/20 02:15:21;;;;;;;19.50;6.00;;;34.10;47.00;;;;;;5080630;28;20016;-59
2023/09/20 02:17:48;;;;;;;14.25;3.70;;;34.10;47.60;;;;;;5077395;28;20043;-62
2023/09/20 02:20:37;;;;;;;29.02;4.22;;;34.00;47.50;;;;;;5075976;28;20052;-58
2023/09/20 02:23:03;;;;;;;17.88;3.58;;;34.00;47.80;;;;;;5065076;28;20024;-59
2023/09/20 02:25:30;;;;;;;27.33;3.53;;;33.90;48.00;;;;;;5063254;28;20441;-60
2023/09/20 02:27:57;;;;;;;12.32;3.92;;;33.80;48.40;;;;;;5068998;28;20024;-60
2023/09/20 02:30:28;;;;;;;14.20;3.72;;;33.70;48.30;;;;;;5071191;28;20028;-61
2023/09/20 02:32:58;;;;;;;31.92;3.60;;;33.70;48.30;;;;;;5072411;28;21609;-57
2023/09/20 02:35:26;;;;;;;34.35;4.22;;;33.70;48.50;;;;;;5070742;28;20032;-60
2023/09/20 02:37:54;;;;;;;16.67;3.67;;;33.60;48.40;;;;;;5054100;28;20014;-62
2023/09/20 02:40:26;;;;;;;21.08;4.13;;;33.60;48.80;;;;;;5073274;28;20501;-60
2023/09/20 02:42:54;;;;;;;15.25;2.67;;;33.50;48.80;;;;;;5072361;28;20016;-58
2023/09/20 02:45:25;;;;;;;19.25;3.72;;;33.40;48.60;;;;;;5072579;28;20020;-62
2023/09/20 02:47:52;;;;;;;18.63;3.42;;;33.40;48.70;;;;;;5074055;28;20020;-67
2023/09/20 02:50:23;;;;;;;21.13;3.03;;;33.20;47.80;;;;;;5070614;28;20475;-59
2023/09/20 02:52:51;;;;;;;15.55;3.47;;;33.30;48.70;;;;;;5071421;28;20076;-62
2023/09/20 02:55:21;;;;;;;21.45;2.67;;;33.20;48.40;;;;;;5082095;22;20060;-60
2023/09/20 02:57:52;;;;;;;20.40;3.25;;;33.20;48.60;;;;;;5084106;28;20126;-57
2023/09/20 03:00:27;;;;;;;17.20;4.35;;;33.10;48.60;;;;;;5077076;28;20028;-58
2023/09/20 03:03:00;;;;;;;21.83;4.60;;;33.10;49.40;;;;;;5075016;28;20025;-60
2023/09/20 03:05:29;;;;;;;16.40;3.78;;;33.10;49.50;;;;;;5076740;28;20035;-59
2023/09/20 03:07:56;;;;;;;20.67;3.92;;;33.00;48.50;;;;;;5076782;28;20012;-57
2023/09/20 03:10:24;;;;;;;18.77;3.33;;;32.90;48.00;;;;;;5057326;28;20020;-53
2023/09/20 03:12:55;;;;;;;14.68;3.67;;;32.80;47.90;;;;;;5080617;28;20424;-55
2023/09/20 03:15:23;;;;;;;17.58;3.58;;;32.80;47.50;;;;;;5072977;28;20423;-57
2023/09/20 03:17:57;;;;;;;22.30;3.20;;;32.80;47.40;;;;;;5071567;28;20078;-58
2023/09/20 03:20:25;;;;;;;16.00;3.65;;;32.70;47.10;;;;;;5074917;28;20020;-57
2023/09/20 03:22:58;;;;;;;25.77;3.63;;;32.70;47.20;;;;;;5082116;28;20024;-58
2023/09/20 03:25:28;;;;;;;28.23;3.47;;;32.60;47.40;;;;;;5075609;28;20009;-54
2023/09/20 03:27:56;;;;;;;17.20;3.40;;;32.60;47.40;;;;;;5077852;28;20021;-56
2023/09/20 03:30:22;;;;;;;20.73;3.33;;;32.50;46.50;;;;;;5074209;28;20052;-55
2023/09/20 03:32:50;;;;;;;21.20;3.08;;;32.50;45.70;;;;;;5074676;28;20578;-56
2023/09/20 03:35:19;;;;;;;14.85;2.97;;;32.40;45.50;;;;;;5076675;28;20055;-57
2023/09/20 03:37:46;;;;;;;9.32;2.65;;;32.40;45.30;;;;;;5075696;28;20084;-51
2023/09/20 03:40:22;;;;;;;24.52;3.63;;;32.40;45.60;;;;;;5072907;28;20115;-58
2023/09/20 03:42:53;;;;;;;18.27;6.10;;;32.40;45.40;;;;;;5074127;28;20024;-56
2023/09/20 03:45:20;;;;;;;19.88;5.07;;;32.30;45.80;;;;;;5051650;28;20119;-58
2023/09/20 03:47:57;;;;;;;24.98;3.80;;;32.30;46.20;;;;;;5065749;28;20091;-58
2023/09/20 03:50:24;;;;;;;21.40;3.47;;;32.20;46.50;;;;;;5063050;28;20206;-56
2023/09/20 03:52:52;;;;;;;21.85;3.60;;;32.20;47.00;;;;;;5064728;28;20032;-55
2023/09/20 03:55:23;;;;;;;18.75;5.18;;;32.10;47.20;;;;;;5064641;28;20044;-60
2023/09/20 03:57:49;;;;;;;15.95;3.78;;;32.10;47.60;;;;;;5068114;28;20093;-59
2023/09/20 04:00:18;;;;;;;15.70;3.17;;;32.00;47.40;;;;;;5064274;28;20050;-55
2023/09/20 04:02:48;;;;;;;16.20;3.20;;;32.00;47.80;;;;;;5063784;28;20055;-56
2023/09/20 04:05:16;;;;;;;18.08;3.72;;;32.00;47.40;;;;;;5062536;28;20028;-56
2023/09/20 04:07:44;;;;;;;18.80;3.10;;;32.00;47.40;;;;;;5065803;28;20050;-56
2023/09/20 04:10:11;;;;;;;19.35;3.42;;;32.00;48.70;;;;;;5066069;28;20028;-58
2023/09/20 04:12:38;;;;;;;26.50;6.28;;;31.90;47.70;;;;;;5065486;28;20056;-54
2023/09/20 04:15:05;;;;;;;21.75;3.90;;;31.80;47.90;;;;;;5065396;28;20025;-55
2023/09/20 04:17:35;;;;;;;18.17;3.83;;;31.70;48.10;;;;;;5067193;28;20039;-62
2023/09/20 04:20:05;;;;;;;14.13;3.40;;;31.70;48.50;;;;;;5065973;28;20096;-57
2023/09/20 04:22:32;;;;;;;21.05;3.90;;;31.70;48.30;;;;;;5064863;28;20256;-59
2023/09/20 04:24:59;;;;;;;18.10;3.35;;;31.60;48.30;;;;;;5061914;28;21413;-61
2023/09/20 04:27:28;;;;;;;11.93;2.70;;;31.60;47.50;;;;;;5062504;28;20035;-57
2023/09/20 04:29:54;;;;;;;11.63;2.30;;;31.50;46.80;;;;;;5062297;28;20052;-60
2023/09/20 04:32:21;;;;;;;19.00;2.70;;;31.50;47.60;;;;;;5059276;28;20021;-57
2023/09/20 04:34:52;;;;;;;16.98;2.88;;;31.50;47.90;;;;;;5063791;28;20307;-56
2023/09/20 04:37:19;;;;;;;12.13;2.60;;;31.40;47.60;;;;;;5066386;28;20024;-59
2023/09/20 04:39:47;;;;;;;15.18;2.47;;;31.30;47.50;;;;;;5065756;28;20017;-56
2023/09/20 04:42:14;;;;;;;15.45;2.50;;;31.40;47.20;;;;;;5064475;28;20024;-56
2023/09/20 04:44:41;;;;;;;16.63;2.65;;;31.30;47.50;;;;;;5066255;28;20408;-58
2023/09/20 04:47:10;;;;;;;7.00;2.20;;;31.30;47.70;;;;;;5056064;28;20038;-56
2023/09/20 04:49:37;;;;;;;19.27;3.15;;;31.30;48.10;;;;;;5066656;28;20017;-59
2023/09/20 04:52:04;;;;;;;10.90;2.65;;;31.20;47.80;;;;;;5063547;28;20095;-57
2023/09/20 04:54:31;;;;;;;18.13;3.58;;;31.20;48.40;;;;;;5065406;28;20017;-55
2023/09/20 04:56:57;;;;;;;10.85;3.17;;;31.10;47.90;;;;;;5062491;28;20036;-52
2023/09/20 04:59:24;;;;;;;7.47;2.88;;;31.10;47.80;;;;;;5065096;28;20056;-55
2023/09/20 05:01:50;;;;;;;9.75;2.65;;;31.10;48.40;;;;;;5061372;28;20094;-57
2023/09/20 05:04:19;;;;;;;13.57;3.13;;;31.00;48.20;;;;;;5055909;28;20063;-55
2023/09/20 05:06:45;;;;;;;14.00;2.80;;;30.90;47.90;;;;;;5059153;28;20029;-58
2023/09/20 05:09:15;;;;;;;16.58;3.30;;;30.90;48.90;;;;;;5065412;28;20496;-57
2023/09/20 05:11:42;;;;;;;15.15;3.17;;;30.90;49.00;;;;;;5062180;28;20408;-56
2023/09/20 05:14:08;;;;;;;18.60;3.10;;;30.80;49.10;;;;;;5070155;28;20016;-57
2023/09/20 05:16:34;;;;;;;20.58;2.80;;;30.80;48.50;;;;;;5069857;28;20416;-56
2023/09/20 05:19:01;;;;;;;11.85;3.40;;;30.80;49.20;;;;;;5069639;28;20016;-59
2023/09/20 05:21:27;;;;;;;16.80;3.72;;;30.70;50.20;;;;;;5067526;28;20012;-53
2023/09/20 05:23:54;;;;;;;12.88;5.72;;;30.70;49.80;;;;;;5071100;28;20150;-57
2023/09/20 05:26:21;;;;;;;18.30;4.30;;;30.60;49.50;;;;;;5066940;28;20078;-58
2023/09/20 05:28:47;;;;;;;17.73;3.85;;;30.60;49.80;;;;;;5068025;28;20020;-57
2023/09/20 05:31:15;;;;;;;18.92;4.90;;;30.60;49.80;;;;;;5070787;28;20028;-56
2023/09/20 05:33:42;;;;;;;15.80;4.20;;;30.50;50.10;;;;;;5070676;28;20016;-59
2023/09/20 05:36:09;;;;;;;13.80;4.20;;;30.50;50.00;;;;;;5071582;28;20511;-57
2023/09/20 05:38:36;;;;;;;15.52;4.68;;;30.50;51.70;;;;;;5069901;28;20377;-55
2023/09/20 05:41:03;;;;;;;20.40;5.13;;;30.50;51.10;;;;;;5070726;28;20013;-57
2023/09/20 05:43:30;;;;;;;13.50;4.50;;;30.50;50.70;;;;;;5065702;28;20055;-62
2023/09/20 05:45:59;;;;;;;17.35;4.53;;;30.40;50.80;;;;;;5063154;28;20059;-58
2023/09/20 05:48:26;;;;;;;18.73;3.92;;;30.40;51.20;;;;;;5070385;28;20476;-60
2023/09/20 05:50:54;;;;;;;16.02;4.20;;;30.40;51.10;;;;;;5066284;28;20138;-59
2023/09/20 05:53:21;;;;;;;19.27;4.47;;;30.30;51.40;;;;;;5067757;28;20409;-56
2023/09/20 05:55:47;;;;;;;15.85;4.40;;;30.30;51.50;;;;;;5069026;28;20036;-60
2023/09/20 05:58:13;;;;;;;28.80;4.68;;;30.20;52.20;;;;;;5069013;28;20035;-55
2023/09/20 06:00:40;;;;;;;12.52;3.70;;;30.20;52.20;;;;;;5068173;28;20021;-58
2023/09/20 06:03:11;;;;;;;13.35;4.20;;;30.10;51.80;;;;;;5039033;28;20056;-55
2023/09/20 06:05:38;;;;;;;11.63;4.00;;;30.10;52.50;;;;;;5070029;28;20056;-58
2023/09/20 06:08:08;;;;;;;25.55;4.45;;;30.00;52.10;;;;;;5069829;28;20036;-53
2023/09/20 06:10:34;;;;;;;14.40;4.18;;;30.00;51.70;;;;;;5053576;28;20029;-56
2023/09/20 06:13:01;;;;;;;19.27;4.30;;;30.00;52.60;;;;;;5064856;28;20044;-58
2023/09/20 06:15:28;;;;;;;13.82;3.50;;;30.00;52.40;;;;;;5067808;28;20059;-60
2023/09/20 06:17:54;;;;;;;24.58;4.25;;;30.00;53.10;;;;;;5070942;28;20021;-51
2023/09/20 06:20:21;;;;;;;12.18;4.38;;;29.90;53.00;;;;;;5069835;28;20358;-59
2023/09/20 06:22:52;;;;;;;14.93;4.82;;;29.90;53.50;;;;;;5061079;28;20457;-56
2023/09/20 06:25:20;;;;;;;16.25;4.47;;;29.80;53.90;;;;;;5062407;28;20396;-57
2023/09/20 06:27:50;;;;;;;9.23;4.00;;;29.70;54.10;;;;;;5062112;28;20473;-56
2023/09/20 06:30:25;;;;;;;17.23;4.88;;;29.70;55.10;;;;;;5060156;28;20476;-55
2023/09/20 06:32:52;;;;;;;15.57;4.70;;;29.50;54.30;;;;;;5060053;28;20024;-59
2023/09/20 06:35:22;;;;;;;11.70;4.50;;;29.50;54.70;;;;;;5061912;28;20021;-58
2023/09/20 06:37:48;;;;;;;9.32;3.88;;;29.50;55.00;;;;;;5063708;28;20025;-56
2023/09/20 06:40:38;;;;;;;19.83;4.18;;;29.50;55.40;;;;;;5061797;28;20053;-57
2023/09/20 06:43:09;;;;;;;11.27;4.22;;;29.40;55.40;;;;;;5061937;28;20021;-59
2023/09/20 06:45:52;;;;;;;13.05;4.22;;;29.40;54.80;;;;;;5058278;28;20027;-56
2023/09/20 06:48:22;;;;;;;15.73;4.45;;;29.40;55.10;;;;;;5059846;28;20056;-57
2023/09/20 06:50:55;;;;;;;23.77;5.30;;;29.30;55.10;;;;;;5061323;28;20381;-57
2023/09/20 06:53:23;;;;;;;25.05;4.63;;;29.30;54.90;;;;;;5059998;28;20020;-57
2023/09/20 06:55:50;;;;;;;16.63;4.10;;;29.20;55.20;;;;;;5058477;28;20031;-55
2023/09/20 06:58:16;;;;;;;15.55;4.32;;;29.20;55.20;;;;;;5058555;28;20116;-55
2023/09/20 07:00:43;;;;;;;14.43;4.20;;;29.20;55.30;;;;;;5059348;28;20024;-54
2023/09/20 07:03:10;;;;;;;20.15;4.55;;;29.10;55.70;;;;;;5061046;28;20044;-59
2023/09/20 07:05:37;;;;;;;24.20;4.68;;;29.10;56.00;;;;;;5060033;28;20050;-55
2023/09/20 07:08:05;;;;;;;13.75;4.30;;;29.00;55.80;;;;;;5060432;28;20131;-56
2023/09/20 07:10:32;;;;;;;13.90;4.15;;;29.00;55.70;;;;;;5061397;28;20357;-58
2023/09/20 07:12:59;;;;;;;14.52;4.43;;;29.00;55.80;;;;;;5056485;28;20492;-59
2023/09/20 07:15:26;;;;;;;14.48;4.65;;;29.00;56.10;;;;;;5060350;28;20191;-56
2023/09/20 07:17:58;;;;;;;16.88;4.45;;;29.00;56.20;;;;;;5062077;28;20021;-54
2023/09/20 07:20:26;;;;;;;18.67;4.60;;;29.00;55.90;;;;;;5060002;28;20016;-58
2023/09/20 07:22:53;;;;;;;18.20;14.80;;;29.00;56.30;;;;;;5060373;28;20052;-57
2023/09/20 07:25:20;;;;;;;26.33;15.73;;;29.00;56.80;;;;;;5060254;28;20096;-58
2023/09/20 07:27:48;;;;;;;22.15;14.50;;;28.90;56.50;;;;;;5063451;28;20024;-57
2023/09/20 07:30:21;;;;;;;18.65;15.50;;;28.90;57.40;;;;;;5062679;28;20784;-56
2023/09/20 07:32:52;;;;;;;19.77;15.52;;;28.80;56.80;;;;;;5062642;28;20045;-55
2023/09/20 07:36:00;;;;;;;12.48;4.35;;;28.70;56.90;;;;;;5060307;28;20021;-56
2023/09/20 07:38:18;;;;;;;24.05;5.00;;;28.70;57.00;;;;;;5050720;28;20021;-56
2023/09/20 07:40:44;;;;;;;;;;;28.70;57.00;;;;;;5059419;28;20406;-55
2023/09/20 07:43:10;;;;;;;18.08;5.03;;;28.60;56.90;;;;;;5057473;28;19905;-55
2023/09/20 07:45:38;;;;;;;20.08;4.88;;;28.60;57.50;;;;;;5058631;28;20483;-58
2023/09/20 07:48:12;;;;;;;15.88;4.68;;;28.50;57.50;;;;;;5059149;28;20047;-58
2023/09/20 07:50:50;;;;;;;15.65;5.00;;;28.40;57.80;;;;;;5059405;28;20016;-59
2023/09/20 07:53:19;;;;;;;22.10;4.70;;;28.40;57.10;;;;;;5059238;28;20488;-56
2023/09/20 07:56:00;;;;;;;21.23;4.97;;;28.40;57.60;;;;;;5058851;28;20041;-54
2023/09/20 07:58:27;;;;;;;13.02;4.43;;;28.40;56.70;;;;;;5058380;28;20019;-56
2023/09/20 08:00:56;;;;;;;25.55;4.78;;;28.40;57.60;;;;;;5058616;28;20053;-55
2023/09/20 08:03:23;;;;;;;18.33;5.38;;;28.30;57.70;;;;;;5058915;28;20106;-59
2023/09/20 08:05:51;;;;;;;14.10;4.60;;;28.30;57.20;;;;;;5060380;28;20379;-57
2023/09/20 08:08:18;;;;;;;19.20;4.95;;;28.30;58.10;;;;;;5063383;28;20495;-56
2023/09/20 08:10:44;;;;;;;18.02;4.57;;;28.30;57.30;;;;;;5058928;28;20021;-56
2023/09/20 08:13:11;;;;;;;16.00;4.20;;;28.20;57.20;;;;;;5056252;28;20025;-56
2023/09/20 08:15:44;;;;;;;22.38;4.45;;;28.10;57.00;;;;;;5056845;28;20380;-59
2023/09/20 08:20:57;;;;;;;14.52;4.53;;;28.10;57.30;;;;;;5058934;28;20097;-57
2023/09/20 09:02:13;;;;;;;12.48;4.22;;;27.70;57.20;;;;;;5060393;28;20058;-57
2023/09/20 09:04:40;;;;;;;;;;;27.70;57.50;;;;;;5062100;28;20046;-59
2023/09/20 09:07:06;;;;;;;11.95;4.13;;;27.70;57.70;;;;;;5063103;28;20073;-58
2023/09/20 09:09:33;;;;;;;11.85;4.15;;;27.70;58.00;;;;;;5062731;28;20113;-56
2023/09/20 09:11:59;;;;;;;16.90;4.95;;;27.70;59.00;;;;;;5059934;28;20063;-58
2023/09/20 09:14:26;;;;;;;13.63;5.35;;;27.70;60.50;;;;;;5059920;28;20021;-59
2023/09/20 09:17:01;;;;;;;12.45;4.95;;;27.60;63.40;;;;;;5060683;28;20050;-56
2023/09/20 09:19:28;;;;;;;15.60;5.35;;;27.60;65.50;;;;;;5063884;28;20384;-56
2023/09/20 09:21:58;;;;;;;18.75;5.40;;;27.60;66.30;;;;;;5066220;28;20103;-58
2023/09/20 09:24:27;;;;;;;18.13;5.50;;;27.50;66.40;;;;;;5067924;28;20070;-56
2023/09/20 09:27:08;;;;;;;15.60;6.13;;;27.50;67.40;;;;;;5063547;28;20054;-58
2023/09/20 09:29:35;;;;;;;15.00;5.75;;;27.50;67.80;;;;;;5063321;28;20406;-58
2023/09/20 09:32:03;;;;;;;15.95;5.57;;;27.50;68.70;;;;;;5064319;28;20089;-57
2023/09/20 09:34:30;;;;;;;12.23;6.18;;;27.40;70.10;;;;;;5064749;28;20136;-58
2023/09/20 09:36:57;;;;;;;15.20;5.85;;;27.40;71.30;;;;;;5068844;28;20083;-59
2023/09/20 09:39:26;;;;;;;18.13;6.30;;;27.30;71.90;;;;;;5062012;28;20043;-59
2023/09/20 09:41:53;;;;;;;14.93;5.53;;;27.20;72.80;;;;;;5067006;28;20096;-57
2023/09/20 09:44:22;;;;;;;13.50;5.22;;;27.20;71.80;;;;;;5061584;28;20115;-56
2023/09/20 09:46:49;;;;;;;16.45;5.18;;;27.20;69.90;;;;;;5064263;28;20056;-53
2023/09/20 09:49:18;;;;;;;13.95;5.22;;;27.20;68.40;;;;;;5066446;28;20043;-57
2023/09/20 09:51:52;;;;;;;13.90;4.78;;;27.10;66.80;;;;;;5058819;28;20157;-56
2023/09/20 09:54:20;;;;;;;14.75;4.82;;;27.10;66.20;;;;;;5062719;28;20134;-53
2023/09/20 09:56:47;;;;;;;11.88;4.65;;;27.10;65.70;;;;;;5055888;28;20078;-54
2023/09/20 09:59:14;;;;;;;14.65;4.88;;;27.10;67.50;;;;;;5066419;28;20451;-53
2023/09/20 10:01:41;;;;;;;21.17;5.15;;;27.10;69.40;;;;;;5061497;28;20039;-58
2023/09/20 10:04:13;;;;;;;16.55;5.30;;;27.10;72.10;;;;;;5060147;28;20051;-59
2023/09/20 10:07:07;;;;;;;21.00;5.32;;;27.10;73.40;;;;;;5060532;28;20523;-54
2023/09/20 10:09:41;;;;;;;14.95;5.03;;;27.00;75.70;;;;;;5059311;28;20056;-57
2023/09/20 10:12:08;;;;;;;16.15;5.88;;;27.00;77.10;;;;;;5059311;28;20061;-53
2023/09/20 10:14:39;;;;;;;14.95;5.13;;;26.90;78.30;;;;;;5063974;28;20443;-54
2023/09/20 10:17:08;;;;;;;15.57;4.95;;;26.90;81.00;;;;;;5060746;28;20048;-54
2023/09/20 10:19:36;;;;;;;18.13;4.72;;;26.70;81.60;;;;;;5059591;28;20083;-53
2023/09/20 10:22:08;;;;;;;18.23;5.28;;;26.70;82.50;;;;;;5061507;28;20092;-55
2023/09/20 10:25:01;;;;;;;18.98;5.43;;;26.70;83.90;;;;;;5059112;28;20051;-55
2023/09/20 10:27:30;;;;;;;16.20;4.78;;;26.70;86.40;;;;;;5060412;28;20052;-57
2023/09/20 10:30:10;;;;;;;16.38;4.80;;;26.60;88.50;;;;;;5064246;28;20056;-56
2023/09/20 10:32:58;;;;;;;16.08;4.65;;;26.60;90.10;;;;;;5060555;28;20114;-56
2023/09/20 10:35:33;;;;;;;10.48;3.72;;;26.60;91.10;;;;;;5059211;28;20083;-57
2023/09/20 10:38:08;;;;;;;13.50;4.57;;;26.50;92.00;;;;;;5060685;28;20062;-58
2023/09/20 10:40:48;;;;;;;12.18;4.07;;;26.50;93.00;;;;;;5063242;28;20042;-56
2023/09/20 10:43:35;;;;;;;8.98;3.80;;;26.50;93.90;;;;;;5062083;28;20051;-55
2023/09/20 10:46:09;;;;;;;11.68;4.00;;;26.50;94.70;;;;;;5052175;28;20149;-56
2023/09/20 10:48:40;;;;;;;14.32;4.10;;;26.60;95.10;;;;;;5061766;28;20510;-55
2023/09/20 10:51:07;;;;;;;14.07;4.05;;;26.50;95.40;;;;;;5059617;28;20064;-57
2023/09/20 10:53:56;;;;;;;9.35;3.15;;;26.50;96.00;;;;;;5060877;28;20144;-56
2023/09/20 10:56:53;;;;;;;8.02;3.17;;;26.50;97.00;;;;;;5052355;28;20080;-54
2023/09/20 10:59:26;;;;;;;8.38;3.28;;;26.40;97.70;;;;;;5060993;28;20131;-58
2023/09/20 11:01:56;;;;;;;9.60;3.33;;;26.40;97.50;;;;;;5062219;28;20059;-57
2023/09/20 11:04:25;;;;;;;6.63;3.15;;;26.30;94.50;;;;;;5060323;28;20056;-58
2023/09/20 11:06:53;;;;;;;12.07;3.30;;;26.20;90.30;;;;;;5061994;28;20124;-57
2023/09/20 11:09:23;;;;;;;8.90;2.97;;;26.20;82.30;;;;;;5058837;28;20054;-56
2023/09/20 11:11:53;;;;;;;9.90;3.15;;;26.30;82.80;;;;;;5057643;28;20059;-57
2023/09/20 11:14:19;;;;;;;10.02;3.22;;;26.20;83.80;;;;;;5059046;28;20045;-57
2023/09/20 11:16:45;;;;;;;8.45;3.15;;;26.20;86.70;;;;;;5058469;28;20147;-58
2023/09/20 11:19:12;;;;;;;7.30;3.25;;;26.20;89.60;;;;;;5062062;28;20047;-58
2023/09/20 11:21:41;;;;;;;21.65;3.92;;;26.20;90.10;;;;;;5059934;28;20093;-56
2023/09/20 11:24:15;;;;;;;8.70;3.50;;;26.20;89.70;;;;;;5059441;28;20053;-53
2023/09/20 11:26:47;;;;;;;6.95;3.22;;;26.20;85.60;;;;;;5059960;28;20059;-53
2023/09/20 11:29:16;;;;;;;9.05;3.50;;;26.10;82.90;;;;;;5059149;28;20139;-56
2023/09/20 11:31:45;;;;;;;13.95;3.40;;;26.10;81.70;;;;;;5062492;28;20064;-58
2023/09/20 11:34:17;;;;;;;16.55;3.75;;;26.00;77.40;;;;;;5061397;28;20077;-54
2023/09/20 11:36:45;;;;;;;14.70;4.05;;;25.90;69.00;;;;;;5061974;28;21277;-57
2023/09/20 11:39:29;;;;;;;14.48;3.65;;;25.90;65.40;;;;;;5064172;28;20117;-56
2023/09/20 11:42:01;;;;;;;16.40;3.78;;;25.90;63.90;;;;;;5062675;28;20100;-59
2023/09/20 11:44:29;;;;;;;9.55;3.55;;;25.90;62.10;;;;;;5062811;28;20053;-57
2023/09/20 11:46:57;;;;;;;15.07;3.88;;;25.90;60.60;;;;;;5064383;28;20059;-58
2023/09/20 11:49:24;;;;;;;11.32;3.30;;;25.90;61.80;;;;;;5061271;28;20048;-57
2023/09/20 11:51:51;;;;;;;9.63;3.47;;;25.80;60.40;;;;;;5063533;28;20058;-56
2023/09/20 11:54:17;;;;;;;10.63;3.58;;;25.80;61.50;;;;;;5063221;28;20047;-56
2023/09/20 11:56:47;;;;;;;14.75;3.92;;;25.70;60.90;;;;;;5064412;28;20066;-60
2023/09/20 11:59:18;;;;;;;14.70;3.60;;;25.70;61.10;;;;;;5063419;28;20051;-58
2023/09/20 12:01:45;;;;;;;10.48;3.58;;;25.60;60.60;;;;;;5060592;28;20453;-55
2023/09/20 12:04:13;;;;;;;12.00;3.17;;;25.60;61.20;;;;;;5062366;28;20407;-53
2023/09/20 12:06:40;;;;;;;14.45;3.47;;;25.60;62.10;;;;;;5064638;28;20107;-59
2023/09/20 12:09:06;;;;;;;7.13;3.78;;;25.60;59.50;;;;;;5064795;28;20416;-58
2023/09/20 12:11:33;;;;;;;11.80;3.17;;;25.50;59.30;;;;;;5064372;28;20127;-58
2023/09/20 12:13:59;;;;;;;12.43;3.67;;;25.50;59.30;;;;;;5060283;28;20047;-58
2023/09/20 12:16:25;;;;;;;11.07;3.35;;;25.50;59.20;;;;;;5057665;28;20050;-57
2023/09/20 12:18:55;;;;;;;8.55;3.58;;;25.50;59.70;;;;;;5059694;28;20463;-56
2023/09/20 12:21:22;;;;;;;10.52;4.07;;;25.40;59.40;;;;;;5056288;28;20046;-57
2023/09/20 12:23:49;;;;;;;7.63;3.50;;;25.50;59.70;;;;;;5056443;28;20049;-57
2023/09/20 12:26:17;;;;;;;9.90;3.50;;;25.50;59.70;;;;;;5060239;28;20041;-55
2023/09/20 12:28:45;;;;;;;16.77;3.45;;;25.40;59.70;;;;;;5062831;28;20055;-55
2023/09/20 12:31:11;;;;;;;9.15;3.70;;;25.40;59.80;;;;;;5058425;28;20043;-60
2023/09/20 12:33:38;;;;;;;12.95;3.97;;;25.40;60.70;;;;;;5058979;28;20072;-58
2023/09/20 12:36:04;;;;;;;15.02;3.67;;;25.40;60.70;;;;;;5060858;28;20048;-56
2023/09/20 12:38:31;;;;;;;11.18;4.03;;;25.20;60.60;;;;;;5063239;28;20044;-55
2023/09/20 12:40:58;;;;;;;10.68;3.53;;;25.10;61.30;;;;;;5057872;28;20082;-58
2023/09/20 12:43:25;;;;;;;9.30;3.50;;;25.10;61.70;;;;;;5064155;28;20057;-55
2023/09/20 12:45:52;;;;;;;15.02;3.92;;;25.10;61.20;;;;;;5061988;28;20058;-57
2023/09/20 12:48:19;;;;;;;14.13;3.80;;;25.10;61.60;;;;;;5041318;28;20052;-56
2023/09/20 12:50:46;;;;;;;10.73;4.18;;;25.00;62.30;;;;;;5059552;28;20062;-56
2023/09/20 12:53:12;;;;;;;15.60;4.38;;;25.00;61.70;;;;;;5057144;28;20501;-56
2023/09/20 12:55:40;;;;;;;13.10;4.32;;;25.00;61.90;;;;;;5057985;28;20047;-58
2023/09/20 12:58:08;;;;;;;13.73;3.80;;;24.90;62.50;;;;;;5057605;28;20192;-57
2023/09/20 13:00:35;;;;;;;11.25;4.45;;;24.80;62.50;;;;;;5060378;28;20048;-58
2023/09/20 13:03:07;;;;;;;13.85;3.90;;;24.80;63.20;;;;;;5058511;28;20110;-57
2023/09/20 13:05:35;;;;;;;14.63;4.57;;;24.70;63.40;;;;;;5059920;28;20558;-56
2023/09/20 13:08:01;;;;;;;15.10;4.07;;;24.70;63.60;;;;;;5058183;28;20061;-56
2023/09/20 13:10:28;;;;;;;11.50;3.88;;;24.70;63.60;;;;;;5054898;28;20383;-52
2023/09/20 13:12:54;;;;;;;15.60;4.00;;;24.70;63.30;;;;;;5056578;28;20061;-56
2023/09/20 13:15:21;;;;;;;17.67;4.70;;;24.60;63.60;;;;;;5067014;28;20061;-57
2023/09/20 13:17:56;;;;;;;9.00;3.60;;;24.60;63.90;;;;;;5062880;28;20122;-57
2023/09/20 13:20:27;;;;;;;16.70;4.32;;;24.50;64.60;;;;;;5061963;28;20049;-56
2023/09/20 13:22:56;;;;;;;13.52;4.47;;;24.50;64.90;;;;;;5063575;28;22190;-57
2023/09/20 13:25:25;;;;;;;18.25;5.18;;;24.50;64.40;;;;;;5066005;28;20052;-57
2023/09/20 13:27:54;;;;;;;19.20;4.70;;;24.40;64.90;;;;;;5057573;28;20070;-56
2023/09/20 13:30:20;;;;;;;20.10;5.00;;;24.40;64.60;;;;;;5058238;28;20065;-56